sensor_id;sensor_type;location;lat;lon;timestamp;P1;durP1;ratioP1;P2;durP2;ratioP2
80957;SDS011;70419;42.700;23.316;2023-07-29T00:00:41;5.13;;;2.55;;
80957;SDS011;70419;42.700;23.316;2023-07-29T00:03:08;5.93;;;2.50;;
80957;SDS011;70419;42.700;23.316;2023-07-29T00:05:34;5.57;;;2.42;;
80957;SDS011;70419;42.700;23.316;2023-07-29T00:08:01;6.55;;;3.15;;
80957;SDS011;70419;42.700;23.316;2023-07-29T00:10:27;6.07;;;2.90;;
80957;SDS011;70419;42.700;23.316;2023-07-29T00:12:53;9.27;;;2.97;;
80957;SDS011;70419;42.700;23.316;2023-07-29T00:15:19;5.07;;;2.80;;
80957;SDS011;70419;42.700;23.316;2023-07-29T00:17:45;5.85;;;2.78;;
80957;SDS011;70419;42.700;23.316;2023-07-29T00:20:11;5.05;;;2.72;;
80957;SDS011;70419;42.700;23.316;2023-07-29T00:22:37;6.18;;;3.50;;
80957;SDS011;70419;42.700;23.316;2023-07-29T00:25:03;6.95;;;2.95;;
80957;SDS011;70419;42.700;23.316;2023-07-29T00:27:29;6.00;;;3.08;;
80957;SDS011;70419;42.700;23.316;2023-07-29T00:29:54;7.75;;;2.80;;
80957;SDS011;70419;42.700;23.316;2023-07-29T00:32:20;4.25;;;2.83;;
80957;SDS011;70419;42.700;23.316;2023-07-29T00:34:46;6.00;;;2.58;;
80957;SDS011;70419;42.700;23.316;2023-07-29T00:37:11;4.22;;;2.45;;
80957;SDS011;70419;42.700;23.316;2023-07-29T00:39:37;5.43;;;2.65;;
80957;SDS011;70419;42.700;23.316;2023-07-29T00:42:03;5.95;;;3.13;;
80957;SDS011;70419;42.700;23.316;2023-07-29T00:44:30;6.80;;;2.78;;
80957;SDS011;70419;42.700;23.316;2023-07-29T00:46:56;5.50;;;2.58;;
80957;SDS011;70419;42.700;23.316;2023-07-29T00:49:23;4.90;;;2.78;;
80957;SDS011;70419;42.700;23.316;2023-07-29T00:51:49;4.72;;;2.45;;
80957;SDS011;70419;42.700;23.316;2023-07-29T00:54:15;7.20;;;2.97;;
80957;SDS011;70419;42.700;23.316;2023-07-29T00:56:41;5.68;;;2.28;;
80957;SDS011;70419;42.700;23.316;2023-07-29T00:59:07;4.85;;;2.60;;
80957;SDS011;70419;42.700;23.316;2023-07-29T01:01:33;7.95;;;2.50;;
80957;SDS011;70419;42.700;23.316;2023-07-29T01:04:02;4.57;;;2.60;;
80957;SDS011;70419;42.700;23.316;2023-07-29T01:09:20;4.60;;;2.55;;
80957;SDS011;70419;42.700;23.316;2023-07-29T01:14:30;6.38;;;2.72;;
80957;SDS011;70419;42.700;23.316;2023-07-29T01:17:07;6.60;;;3.20;;
80957;SDS011;70419;42.700;23.316;2023-07-29T01:22:19;6.32;;;3.10;;
80957;SDS011;70419;42.700;23.316;2023-07-29T01:24:50;9.10;;;2.92;;
80957;SDS011;70419;42.700;23.316;2023-07-29T01:27:16;6.07;;;2.92;;
80957;SDS011;70419;42.700;23.316;2023-07-29T01:29:41;5.57;;;2.83;;
80957;SDS011;70419;42.700;23.316;2023-07-29T01:32:10;5.05;;;2.88;;
80957;SDS011;70419;42.700;23.316;2023-07-29T01:34:48;4.90;;;2.67;;
80957;SDS011;70419;42.700;23.316;2023-07-29T01:37:24;5.30;;;2.83;;
80957;SDS011;70419;42.700;23.316;2023-07-29T01:42:23;12.52;;;3.55;;
80957;SDS011;70419;42.700;23.316;2023-07-29T01:44:49;6.15;;;3.17;;
80957;SDS011;70419;42.700;23.316;2023-07-29T01:47:15;6.30;;;3.80;;
80957;SDS011;70419;42.700;23.316;2023-07-29T01:49:42;6.00;;;3.13;;
80957;SDS011;70419;42.700;23.316;2023-07-29T01:52:07;5.97;;;3.20;;
80957;SDS011;70419;42.700;23.316;2023-07-29T01:54:34;6.63;;;3.20;;
80957;SDS011;70419;42.700;23.316;2023-07-29T01:57:00;7.22;;;3.78;;
80957;SDS011;70419;42.700;23.316;2023-07-29T01:59:27;5.00;;;3.22;;
80957;SDS011;70419;42.700;23.316;2023-07-29T02:01:57;8.30;;;4.00;;
80957;SDS011;70419;42.700;23.316;2023-07-29T02:04:23;6.97;;;4.13;;
80957;SDS011;70419;42.700;23.316;2023-07-29T02:06:48;4.65;;;2.88;;
80957;SDS011;70419;42.700;23.316;2023-07-29T02:09:15;5.65;;;3.63;;
80957;SDS011;70419;42.700;23.316;2023-07-29T02:11:41;6.68;;;3.05;;
80957;SDS011;70419;42.700;23.316;2023-07-29T02:14:08;7.18;;;3.78;;
80957;SDS011;70419;42.700;23.316;2023-07-29T02:16:34;6.30;;;3.38;;
80957;SDS011;70419;42.700;23.316;2023-07-29T02:19:00;14.93;;;4.35;;
80957;SDS011;70419;42.700;23.316;2023-07-29T02:21:25;7.03;;;3.00;;
80957;SDS011;70419;42.700;23.316;2023-07-29T02:23:51;6.22;;;3.40;;
80957;SDS011;70419;42.700;23.316;2023-07-29T02:26:18;5.82;;;3.35;;
80957;SDS011;70419;42.700;23.316;2023-07-29T02:28:44;7.13;;;3.78;;
80957;SDS011;70419;42.700;23.316;2023-07-29T02:31:13;8.30;;;3.60;;
80957;SDS011;70419;42.700;23.316;2023-07-29T02:33:42;7.35;;;3.42;;
80957;SDS011;70419;42.700;23.316;2023-07-29T02:36:08;7.05;;;3.60;;
80957;SDS011;70419;42.700;23.316;2023-07-29T02:38:34;8.75;;;3.33;;
80957;SDS011;70419;42.700;23.316;2023-07-29T02:41:00;5.05;;;3.13;;
80957;SDS011;70419;42.700;23.316;2023-07-29T02:43:26;8.85;;;3.42;;
80957;SDS011;70419;42.700;23.316;2023-07-29T02:45:51;5.97;;;3.03;;
80957;SDS011;70419;42.700;23.316;2023-07-29T02:48:17;5.68;;;2.90;;
80957;SDS011;70419;42.700;23.316;2023-07-29T02:50:43;5.97;;;3.10;;
80957;SDS011;70419;42.700;23.316;2023-07-29T02:53:09;7.40;;;3.10;;
80957;SDS011;70419;42.700;23.316;2023-07-29T02:55:35;7.72;;;3.45;;
80957;SDS011;70419;42.700;23.316;2023-07-29T02:58:00;6.60;;;3.08;;
80957;SDS011;70419;42.700;23.316;2023-07-29T03:00:26;7.35;;;3.30;;
80957;SDS011;70419;42.700;23.316;2023-07-29T03:02:52;6.45;;;3.38;;
80957;SDS011;70419;42.700;23.316;2023-07-29T03:05:18;8.80;;;3.75;;
80957;SDS011;70419;42.700;23.316;2023-07-29T03:07:44;7.78;;;3.90;;
80957;SDS011;70419;42.700;23.316;2023-07-29T03:10:11;10.35;;;4.05;;
80957;SDS011;70419;42.700;23.316;2023-07-29T03:12:37;8.45;;;4.22;;
80957;SDS011;70419;42.700;23.316;2023-07-29T03:15:02;7.38;;;3.95;;
80957;SDS011;70419;42.700;23.316;2023-07-29T03:17:29;12.43;;;4.30;;
80957;SDS011;70419;42.700;23.316;2023-07-29T03:19:54;7.28;;;3.88;;
80957;SDS011;70419;42.700;23.316;2023-07-29T03:22:23;6.95;;;3.53;;
80957;SDS011;70419;42.700;23.316;2023-07-29T03:24:48;8.70;;;3.63;;
80957;SDS011;70419;42.700;23.316;2023-07-29T03:27:14;6.25;;;3.33;;
80957;SDS011;70419;42.700;23.316;2023-07-29T03:29:41;7.90;;;3.45;;
80957;SDS011;70419;42.700;23.316;2023-07-29T03:32:07;6.68;;;3.28;;
80957;SDS011;70419;42.700;23.316;2023-07-29T03:34:34;6.70;;;3.63;;
80957;SDS011;70419;42.700;23.316;2023-07-29T03:37:00;7.53;;;3.47;;
80957;SDS011;70419;42.700;23.316;2023-07-29T03:39:26;7.03;;;3.47;;
80957;SDS011;70419;42.700;23.316;2023-07-29T03:41:52;6.53;;;3.55;;
80957;SDS011;70419;42.700;23.316;2023-07-29T03:44:18;6.80;;;3.38;;
80957;SDS011;70419;42.700;23.316;2023-07-29T03:46:44;7.93;;;3.63;;
80957;SDS011;70419;42.700;23.316;2023-07-29T03:49:10;7.20;;;3.55;;
80957;SDS011;70419;42.700;23.316;2023-07-29T03:51:36;6.15;;;3.17;;
80957;SDS011;70419;42.700;23.316;2023-07-29T03:54:02;6.75;;;3.38;;
80957;SDS011;70419;42.700;23.316;2023-07-29T03:56:27;8.93;;;3.42;;
80957;SDS011;70419;42.700;23.316;2023-07-29T03:58:53;6.57;;;3.45;;
80957;SDS011;70419;42.700;23.316;2023-07-29T04:01:27;9.63;;;3.47;;
80957;SDS011;70419;42.700;23.316;2023-07-29T04:03:53;8.02;;;3.55;;
80957;SDS011;70419;42.700;23.316;2023-07-29T04:06:19;8.18;;;3.00;;
80957;SDS011;70419;42.700;23.316;2023-07-29T04:08:45;6.45;;;3.50;;
80957;SDS011;70419;42.700;23.316;2023-07-29T04:11:11;11.73;;;3.88;;
80957;SDS011;70419;42.700;23.316;2023-07-29T04:13:38;6.65;;;3.20;;
80957;SDS011;70419;42.700;23.316;2023-07-29T04:16:04;8.30;;;3.67;;
80957;SDS011;70419;42.700;23.316;2023-07-29T04:18:30;6.97;;;2.97;;
80957;SDS011;70419;42.700;23.316;2023-07-29T04:20:59;21.80;;;4.60;;
80957;SDS011;70419;42.700;23.316;2023-07-29T04:23:25;8.93;;;3.35;;
80957;SDS011;70419;42.700;23.316;2023-07-29T04:25:50;8.93;;;3.88;;
80957;SDS011;70419;42.700;23.316;2023-07-29T04:28:16;11.75;;;4.10;;
80957;SDS011;70419;42.700;23.316;2023-07-29T04:30:42;8.00;;;3.85;;
80957;SDS011;70419;42.700;23.316;2023-07-29T04:33:08;7.40;;;3.63;;
80957;SDS011;70419;42.700;23.316;2023-07-29T04:35:34;14.40;;;4.68;;
80957;SDS011;70419;42.700;23.316;2023-07-29T04:37:59;10.10;;;4.25;;
80957;SDS011;70419;42.700;23.316;2023-07-29T04:40:25;9.00;;;4.32;;
80957;SDS011;70419;42.700;23.316;2023-07-29T04:42:51;8.65;;;3.88;;
80957;SDS011;70419;42.700;23.316;2023-07-29T04:45:17;14.15;;;4.32;;
80957;SDS011;70419;42.700;23.316;2023-07-29T04:47:42;9.75;;;4.63;;
80957;SDS011;70419;42.700;23.316;2023-07-29T04:50:08;11.25;;;4.93;;
80957;SDS011;70419;42.700;23.316;2023-07-29T04:52:34;13.88;;;4.47;;
80957;SDS011;70419;42.700;23.316;2023-07-29T04:55:00;7.88;;;4.13;;
80957;SDS011;70419;42.700;23.316;2023-07-29T04:57:26;9.30;;;4.75;;
80957;SDS011;70419;42.700;23.316;2023-07-29T04:59:51;7.15;;;3.80;;
80957;SDS011;70419;42.700;23.316;2023-07-29T05:02:17;9.02;;;4.60;;
80957;SDS011;70419;42.700;23.316;2023-07-29T05:04:43;11.90;;;4.72;;
80957;SDS011;70419;42.700;23.316;2023-07-29T05:07:08;9.85;;;4.88;;
80957;SDS011;70419;42.700;23.316;2023-07-29T05:09:34;9.40;;;4.10;;
80957;SDS011;70419;42.700;23.316;2023-07-29T05:12:00;8.52;;;4.28;;
80957;SDS011;70419;42.700;23.316;2023-07-29T05:14:25;11.80;;;4.93;;
80957;SDS011;70419;42.700;23.316;2023-07-29T05:16:51;9.18;;;4.50;;
80957;SDS011;70419;42.700;23.316;2023-07-29T05:19:17;8.00;;;4.28;;
80957;SDS011;70419;42.700;23.316;2023-07-29T05:21:43;8.45;;;4.18;;
80957;SDS011;70419;42.700;23.316;2023-07-29T05:24:08;9.23;;;4.22;;
80957;SDS011;70419;42.700;23.316;2023-07-29T05:26:34;8.55;;;3.75;;
80957;SDS011;70419;42.700;23.316;2023-07-29T05:29:00;8.32;;;4.28;;
80957;SDS011;70419;42.700;23.316;2023-07-29T05:31:28;7.03;;;4.30;;
80957;SDS011;70419;42.700;23.316;2023-07-29T05:33:54;9.27;;;4.32;;
80957;SDS011;70419;42.700;23.316;2023-07-29T05:36:20;9.50;;;4.35;;
80957;SDS011;70419;42.700;23.316;2023-07-29T05:38:46;11.63;;;4.45;;
80957;SDS011;70419;42.700;23.316;2023-07-29T05:41:11;8.20;;;4.43;;
80957;SDS011;70419;42.700;23.316;2023-07-29T05:43:37;8.48;;;4.03;;
80957;SDS011;70419;42.700;23.316;2023-07-29T05:46:03;8.82;;;4.13;;
80957;SDS011;70419;42.700;23.316;2023-07-29T05:48:28;12.95;;;4.70;;
80957;SDS011;70419;42.700;23.316;2023-07-29T05:50:54;9.32;;;4.55;;
80957;SDS011;70419;42.700;23.316;2023-07-29T05:53:20;10.57;;;5.13;;
80957;SDS011;70419;42.700;23.316;2023-07-29T05:55:46;9.50;;;4.60;;
80957;SDS011;70419;42.700;23.316;2023-07-29T05:58:11;10.43;;;5.53;;
80957;SDS011;70419;42.700;23.316;2023-07-29T06:00:37;11.55;;;5.13;;
80957;SDS011;70419;42.700;23.316;2023-07-29T06:03:03;7.97;;;4.60;;
80957;SDS011;70419;42.700;23.316;2023-07-29T06:05:28;8.43;;;4.80;;
80957;SDS011;70419;42.700;23.316;2023-07-29T06:07:54;9.82;;;4.78;;
80957;SDS011;70419;42.700;23.316;2023-07-29T06:10:20;8.82;;;4.07;;
80957;SDS011;70419;42.700;23.316;2023-07-29T06:12:47;10.32;;;4.38;;
80957;SDS011;70419;42.700;23.316;2023-07-29T06:15:13;8.18;;;4.85;;
80957;SDS011;70419;42.700;23.316;2023-07-29T06:17:39;7.28;;;3.38;;
80957;SDS011;70419;42.700;23.316;2023-07-29T06:20:06;11.07;;;4.63;;
80957;SDS011;70419;42.700;23.316;2023-07-29T06:22:32;12.02;;;4.63;;
80957;SDS011;70419;42.700;23.316;2023-07-29T06:24:57;8.85;;;4.70;;
80957;SDS011;70419;42.700;23.316;2023-07-29T06:27:23;8.88;;;4.57;;
80957;SDS011;70419;42.700;23.316;2023-07-29T06:29:50;8.90;;;4.78;;
80957;SDS011;70419;42.700;23.316;2023-07-29T06:32:16;16.00;;;4.65;;
80957;SDS011;70419;42.700;23.316;2023-07-29T06:34:41;9.27;;;4.10;;
80957;SDS011;70419;42.700;23.316;2023-07-29T06:37:07;11.50;;;4.55;;
80957;SDS011;70419;42.700;23.316;2023-07-29T06:39:34;7.05;;;4.63;;
80957;SDS011;70419;42.700;23.316;2023-07-29T06:42:00;10.40;;;4.65;;
80957;SDS011;70419;42.700;23.316;2023-07-29T06:44:27;11.35;;;4.30;;
80957;SDS011;70419;42.700;23.316;2023-07-29T06:46:52;12.90;;;5.47;;
80957;SDS011;70419;42.700;23.316;2023-07-29T06:49:18;8.23;;;4.30;;
80957;SDS011;70419;42.700;23.316;2023-07-29T06:51:44;10.45;;;3.85;;
80957;SDS011;70419;42.700;23.316;2023-07-29T06:54:10;9.65;;;4.25;;
80957;SDS011;70419;42.700;23.316;2023-07-29T06:56:36;9.82;;;4.85;;
80957;SDS011;70419;42.700;23.316;2023-07-29T06:59:02;11.75;;;5.00;;
80957;SDS011;70419;42.700;23.316;2023-07-29T07:01:27;9.15;;;5.00;;
80957;SDS011;70419;42.700;23.316;2023-07-29T07:03:53;11.23;;;4.90;;
80957;SDS011;70419;42.700;23.316;2023-07-29T07:06:20;9.45;;;5.03;;
80957;SDS011;70419;42.700;23.316;2023-07-29T07:08:47;11.30;;;4.95;;
80957;SDS011;70419;42.700;23.316;2023-07-29T07:11:13;7.68;;;4.55;;
80957;SDS011;70419;42.700;23.316;2023-07-29T07:13:39;10.65;;;5.30;;
80957;SDS011;70419;42.700;23.316;2023-07-29T07:16:04;12.35;;;5.55;;
80957;SDS011;70419;42.700;23.316;2023-07-29T07:18:30;10.43;;;5.20;;
80957;SDS011;70419;42.700;23.316;2023-07-29T07:20:56;10.55;;;5.13;;
80957;SDS011;70419;42.700;23.316;2023-07-29T07:23:21;13.75;;;4.53;;
80957;SDS011;70419;42.700;23.316;2023-07-29T07:25:47;10.85;;;4.78;;
80957;SDS011;70419;42.700;23.316;2023-07-29T07:28:13;9.20;;;4.70;;
80957;SDS011;70419;42.700;23.316;2023-07-29T07:30:39;9.85;;;4.05;;
80957;SDS011;70419;42.700;23.316;2023-07-29T07:33:09;10.65;;;5.03;;
80957;SDS011;70419;42.700;23.316;2023-07-29T07:35:35;10.57;;;4.75;;
80957;SDS011;70419;42.700;23.316;2023-07-29T07:38:01;13.07;;;5.13;;
80957;SDS011;70419;42.700;23.316;2023-07-29T07:40:29;13.60;;;4.60;;
80957;SDS011;70419;42.700;23.316;2023-07-29T07:42:58;10.52;;;4.60;;
80957;SDS011;70419;42.700;23.316;2023-07-29T07:45:24;9.38;;;4.38;;
80957;SDS011;70419;42.700;23.316;2023-07-29T07:47:51;7.22;;;4.20;;
80957;SDS011;70419;42.700;23.316;2023-07-29T07:50:18;9.02;;;4.30;;
80957;SDS011;70419;42.700;23.316;2023-07-29T07:52:44;8.05;;;3.83;;
80957;SDS011;70419;42.700;23.316;2023-07-29T07:55:10;5.95;;;3.67;;
80957;SDS011;70419;42.700;23.316;2023-07-29T07:57:35;11.60;;;3.78;;
80957;SDS011;70419;42.700;23.316;2023-07-29T08:00:01;7.93;;;3.83;;
80957;SDS011;70419;42.700;23.316;2023-07-29T08:02:29;10.77;;;4.50;;
80957;SDS011;70419;42.700;23.316;2023-07-29T08:04:55;8.95;;;3.90;;
80957;SDS011;70419;42.700;23.316;2023-07-29T08:07:21;8.77;;;4.10;;
80957;SDS011;70419;42.700;23.316;2023-07-29T08:09:46;11.45;;;4.00;;
80957;SDS011;70419;42.700;23.316;2023-07-29T08:12:12;10.60;;;3.78;;
80957;SDS011;70419;42.700;23.316;2023-07-29T08:14:38;9.65;;;3.70;;
80957;SDS011;70419;42.700;23.316;2023-07-29T08:17:04;7.47;;;3.45;;
80957;SDS011;70419;42.700;23.316;2023-07-29T08:19:29;10.18;;;3.67;;
80957;SDS011;70419;42.700;23.316;2023-07-29T08:21:55;7.00;;;3.83;;
80957;SDS011;70419;42.700;23.316;2023-07-29T08:24:21;9.05;;;4.20;;
80957;SDS011;70419;42.700;23.316;2023-07-29T08:26:47;7.28;;;3.13;;
80957;SDS011;70419;42.700;23.316;2023-07-29T08:29:12;8.82;;;3.92;;
80957;SDS011;70419;42.700;23.316;2023-07-29T08:31:38;8.18;;;4.40;;
80957;SDS011;70419;42.700;23.316;2023-07-29T08:34:04;11.63;;;3.97;;
80957;SDS011;70419;42.700;23.316;2023-07-29T08:36:30;8.70;;;3.90;;
80957;SDS011;70419;42.700;23.316;2023-07-29T08:38:56;8.80;;;3.92;;
80957;SDS011;70419;42.700;23.316;2023-07-29T08:41:24;8.25;;;3.35;;
80957;SDS011;70419;42.700;23.316;2023-07-29T08:44:11;8.32;;;3.15;;
80957;SDS011;70419;42.700;23.316;2023-07-29T08:46:43;10.82;;;4.20;;
80957;SDS011;70419;42.700;23.316;2023-07-29T08:49:11;7.60;;;3.03;;
80957;SDS011;70419;42.700;23.316;2023-07-29T08:51:38;8.60;;;3.67;;
80957;SDS011;70419;42.700;23.316;2023-07-29T08:54:08;5.90;;;3.17;;
80957;SDS011;70419;42.700;23.316;2023-07-29T08:56:35;7.35;;;2.63;;
80957;SDS011;70419;42.700;23.316;2023-07-29T08:59:01;8.57;;;3.05;;
80957;SDS011;70419;42.700;23.316;2023-07-29T09:01:30;5.13;;;3.00;;
80957;SDS011;70419;42.700;23.316;2023-07-29T09:03:56;8.75;;;3.30;;
80957;SDS011;70419;42.700;23.316;2023-07-29T09:06:21;4.07;;;2.72;;
80957;SDS011;70419;42.700;23.316;2023-07-29T09:08:50;5.50;;;2.90;;
80957;SDS011;70419;42.700;23.316;2023-07-29T09:11:18;7.43;;;2.65;;
80957;SDS011;70419;42.700;23.316;2023-07-29T09:16:11;5.47;;;2.90;;
80957;SDS011;70419;42.700;23.316;2023-07-29T09:18:37;7.13;;;3.40;;
80957;SDS011;70419;42.700;23.316;2023-07-29T09:21:03;4.17;;;2.53;;
80957;SDS011;70419;42.700;23.316;2023-07-29T09:23:38;3.33;;;2.90;;
80957;SDS011;70419;42.700;23.316;2023-07-29T09:26:06;4.68;;;2.95;;
80957;SDS011;70419;42.700;23.316;2023-07-29T09:28:35;3.93;;;2.67;;
80957;SDS011;70419;42.700;23.316;2023-07-29T09:31:02;4.25;;;2.50;;
80957;SDS011;70419;42.700;23.316;2023-07-29T09:33:28;3.83;;;2.43;;
80957;SDS011;70419;42.700;23.316;2023-07-29T09:35:56;4.63;;;2.80;;
80957;SDS011;70419;42.700;23.316;2023-07-29T09:38:26;5.00;;;3.30;;
80957;SDS011;70419;42.700;23.316;2023-07-29T09:40:54;5.20;;;3.10;;
80957;SDS011;70419;42.700;23.316;2023-07-29T09:43:24;10.32;;;3.53;;
80957;SDS011;70419;42.700;23.316;2023-07-29T09:45:54;6.35;;;3.38;;
80957;SDS011;70419;42.700;23.316;2023-07-29T09:48:22;7.67;;;3.60;;
80957;SDS011;70419;42.700;23.316;2023-07-29T09:50:48;7.80;;;3.20;;
80957;SDS011;70419;42.700;23.316;2023-07-29T09:53:14;5.82;;;4.00;;
80957;SDS011;70419;42.700;23.316;2023-07-29T09:55:40;5.57;;;3.38;;
80957;SDS011;70419;42.700;23.316;2023-07-29T09:58:13;3.90;;;3.50;;
80957;SDS011;70419;42.700;23.316;2023-07-29T10:00:39;3.78;;;3.38;;
80957;SDS011;70419;42.700;23.316;2023-07-29T10:03:05;4.45;;;3.67;;
80957;SDS011;70419;42.700;23.316;2023-07-29T10:05:33;4.30;;;3.85;;
80957;SDS011;70419;42.700;23.316;2023-07-29T10:08:00;4.57;;;4.18;;
80957;SDS011;70419;42.700;23.316;2023-07-29T10:10:27;6.43;;;4.05;;
80957;SDS011;70419;42.700;23.316;2023-07-29T10:12:54;6.68;;;5.28;;
80957;SDS011;70419;42.700;23.316;2023-07-29T10:15:21;4.55;;;4.07;;
80957;SDS011;70419;42.700;23.316;2023-07-29T10:17:48;4.95;;;4.22;;
80957;SDS011;70419;42.700;23.316;2023-07-29T10:20:16;4.47;;;4.18;;
80957;SDS011;70419;42.700;23.316;2023-07-29T10:22:42;5.03;;;4.35;;
80957;SDS011;70419;42.700;23.316;2023-07-29T10:25:17;9.27;;;4.30;;
80957;SDS011;70419;42.700;23.316;2023-07-29T10:30:31;4.40;;;4.00;;
80957;SDS011;70419;42.700;23.316;2023-07-29T10:32:58;4.72;;;4.15;;
80957;SDS011;70419;42.700;23.316;2023-07-29T10:35:27;6.30;;;4.72;;
80957;SDS011;70419;42.700;23.316;2023-07-29T10:37:53;5.75;;;4.60;;
80957;SDS011;70419;42.700;23.316;2023-07-29T10:40:20;5.10;;;4.70;;
80957;SDS011;70419;42.700;23.316;2023-07-29T10:43:02;5.03;;;4.72;;
80957;SDS011;70419;42.700;23.316;2023-07-29T10:45:40;10.57;;;5.10;;
80957;SDS011;70419;42.700;23.316;2023-07-29T10:50:37;5.75;;;5.20;;
80957;SDS011;70419;42.700;23.316;2023-07-29T10:55:35;5.45;;;5.15;;
80957;SDS011;70419;42.700;23.316;2023-07-29T11:00:48;6.80;;;6.20;;
80957;SDS011;70419;42.700;23.316;2023-07-29T11:03:14;6.80;;;6.20;;
80957;SDS011;70419;42.700;23.316;2023-07-29T11:13:31;4.95;;;4.60;;
80957;SDS011;70419;42.700;23.316;2023-07-29T11:16:00;6.00;;;4.55;;
80957;SDS011;70419;42.700;23.316;2023-07-29T11:18:27;5.57;;;4.07;;
80957;SDS011;70419;42.700;23.316;2023-07-29T11:20:54;4.63;;;4.20;;
80957;SDS011;70419;42.700;23.316;2023-07-29T11:23:26;4.68;;;3.95;;
80957;SDS011;70419;42.700;23.316;2023-07-29T11:25:56;4.20;;;3.90;;
80957;SDS011;70419;42.700;23.316;2023-07-29T11:28:25;4.63;;;3.47;;
80957;SDS011;70419;42.700;23.316;2023-07-29T11:30:51;4.70;;;3.42;;
80957;SDS011;70419;42.700;23.316;2023-07-29T11:33:23;3.85;;;3.60;;
80957;SDS011;70419;42.700;23.316;2023-07-29T11:35:51;3.88;;;3.58;;
80957;SDS011;70419;42.700;23.316;2023-07-29T11:38:18;4.70;;;4.30;;
80957;SDS011;70419;42.700;23.316;2023-07-29T11:43:44;3.47;;;3.28;;
80957;SDS011;70419;42.700;23.316;2023-07-29T11:46:10;4.32;;;3.78;;
80957;SDS011;70419;42.700;23.316;2023-07-29T11:48:36;4.63;;;4.03;;
80957;SDS011;70419;42.700;23.316;2023-07-29T11:51:02;7.30;;;3.78;;
80957;SDS011;70419;42.700;23.316;2023-07-29T11:53:28;4.00;;;3.70;;
80957;SDS011;70419;42.700;23.316;2023-07-29T11:55:57;4.25;;;3.95;;
80957;SDS011;70419;42.700;23.316;2023-07-29T11:58:23;4.28;;;3.92;;
80957;SDS011;70419;42.700;23.316;2023-07-29T12:00:50;4.78;;;4.25;;
80957;SDS011;70419;42.700;23.316;2023-07-29T12:03:16;4.68;;;4.18;;
80957;SDS011;70419;42.700;23.316;2023-07-29T12:05:43;4.97;;;4.57;;
80957;SDS011;70419;42.700;23.316;2023-07-29T12:08:09;5.32;;;4.93;;
80957;SDS011;70419;42.700;23.316;2023-07-29T12:10:35;6.07;;;5.43;;
80957;SDS011;70419;42.700;23.316;2023-07-29T12:15:27;5.90;;;5.20;;
80957;SDS011;70419;42.700;23.316;2023-07-29T12:17:57;5.45;;;5.05;;
80957;SDS011;70419;42.700;23.316;2023-07-29T12:20:24;4.78;;;4.32;;
80957;SDS011;70419;42.700;23.316;2023-07-29T12:22:57;6.00;;;4.70;;
80957;SDS011;70419;42.700;23.316;2023-07-29T12:25:30;4.65;;;3.85;;
80957;SDS011;70419;42.700;23.316;2023-07-29T12:27:56;3.72;;;3.35;;
80957;SDS011;70419;42.700;23.316;2023-07-29T12:30:26;4.30;;;3.10;;
80957;SDS011;70419;42.700;23.316;2023-07-29T12:32:53;2.40;;;2.20;;
80957;SDS011;70419;42.700;23.316;2023-07-29T12:35:18;4.47;;;2.77;;
80957;SDS011;70419;42.700;23.316;2023-07-29T12:37:44;5.77;;;2.53;;
80957;SDS011;70419;42.700;23.316;2023-07-29T12:40:23;3.53;;;2.50;;
80957;SDS011;70419;42.700;23.316;2023-07-29T12:42:50;3.50;;;2.47;;
80957;SDS011;70419;42.700;23.316;2023-07-29T12:45:17;4.70;;;2.95;;
80957;SDS011;70419;42.700;23.316;2023-07-29T12:47:43;4.32;;;2.40;;
80957;SDS011;70419;42.700;23.316;2023-07-29T12:50:10;3.03;;;2.50;;
80957;SDS011;70419;42.700;23.316;2023-07-29T12:52:36;3.73;;;2.80;;
80957;SDS011;70419;42.700;23.316;2023-07-29T12:55:02;3.83;;;2.50;;
80957;SDS011;70419;42.700;23.316;2023-07-29T12:57:28;4.60;;;2.50;;
80957;SDS011;70419;42.700;23.316;2023-07-29T12:59:53;2.77;;;2.50;;
80957;SDS011;70419;42.700;23.316;2023-07-29T13:02:19;2.67;;;2.13;;
80957;SDS011;70419;42.700;23.316;2023-07-29T13:04:45;2.63;;;1.93;;
80957;SDS011;70419;42.700;23.316;2023-07-29T13:09:37;4.10;;;2.17;;
80957;SDS011;70419;42.700;23.316;2023-07-29T13:12:03;5.20;;;2.00;;
80957;SDS011;70419;42.700;23.316;2023-07-29T13:14:29;3.37;;;2.40;;
80957;SDS011;70419;42.700;23.316;2023-07-29T13:16:54;3.80;;;2.43;;
80957;SDS011;70419;42.700;23.316;2023-07-29T13:19:20;4.80;;;2.20;;
80957;SDS011;70419;42.700;23.316;2023-07-29T13:21:46;7.17;;;2.23;;
80957;SDS011;70419;42.700;23.316;2023-07-29T13:24:12;4.23;;;2.67;;
80957;SDS011;70419;42.700;23.316;2023-07-29T13:26:37;3.90;;;2.83;;
80957;SDS011;70419;42.700;23.316;2023-07-29T13:29:03;5.53;;;2.90;;
80957;SDS011;70419;42.700;23.316;2023-07-29T13:31:29;11.43;;;3.10;;
80957;SDS011;70419;42.700;23.316;2023-07-29T13:33:55;4.15;;;2.70;;
80957;SDS011;70419;42.700;23.316;2023-07-29T13:36:21;3.80;;;2.70;;
80957;SDS011;70419;42.700;23.316;2023-07-29T13:38:47;4.80;;;3.10;;
80957;SDS011;70419;42.700;23.316;2023-07-29T13:41:12;7.77;;;3.20;;
80957;SDS011;70419;42.700;23.316;2023-07-29T13:43:38;5.17;;;3.57;;
80957;SDS011;70419;42.700;23.316;2023-07-29T13:46:04;6.93;;;3.70;;
80957;SDS011;70419;42.700;23.316;2023-07-29T13:48:29;6.27;;;2.93;;
80957;SDS011;70419;42.700;23.316;2023-07-29T13:50:55;5.93;;;2.50;;
80957;SDS011;70419;42.700;23.316;2023-07-29T13:53:21;3.50;;;2.50;;
80957;SDS011;70419;42.700;23.316;2023-07-29T13:55:47;5.17;;;2.40;;
80957;SDS011;70419;42.700;23.316;2023-07-29T13:58:12;12.87;;;3.10;;
80957;SDS011;70419;42.700;23.316;2023-07-29T14:00:38;3.00;;;2.30;;
80957;SDS011;70419;42.700;23.316;2023-07-29T14:03:04;5.37;;;2.40;;
80957;SDS011;70419;42.700;23.316;2023-07-29T14:05:30;3.87;;;2.13;;
80957;SDS011;70419;42.700;23.316;2023-07-29T14:07:55;3.50;;;2.83;;
80957;SDS011;70419;42.700;23.316;2023-07-29T14:10:21;5.20;;;2.72;;
80957;SDS011;70419;42.700;23.316;2023-07-29T14:12:47;2.33;;;1.92;;
80957;SDS011;70419;42.700;23.316;2023-07-29T14:15:12;3.45;;;2.00;;
80957;SDS011;70419;42.700;23.316;2023-07-29T14:17:38;10.93;;;2.78;;
80957;SDS011;70419;42.700;23.316;2023-07-29T14:20:06;4.80;;;1.92;;
80957;SDS011;70419;42.700;23.316;2023-07-29T14:22:32;4.72;;;2.58;;
80957;SDS011;70419;42.700;23.316;2023-07-29T14:24:58;5.63;;;2.20;;
80957;SDS011;70419;42.700;23.316;2023-07-29T14:27:24;4.80;;;2.03;;
80957;SDS011;70419;42.700;23.316;2023-07-29T14:29:49;4.50;;;2.53;;
80957;SDS011;70419;42.700;23.316;2023-07-29T14:32:15;3.97;;;1.85;;
80957;SDS011;70419;42.700;23.316;2023-07-29T14:34:41;3.63;;;1.88;;
80957;SDS011;70419;42.700;23.316;2023-07-29T14:37:07;3.85;;;1.70;;
80957;SDS011;70419;42.700;23.316;2023-07-29T14:39:33;4.75;;;1.90;;
80957;SDS011;70419;42.700;23.316;2023-07-29T14:41:58;7.15;;;1.75;;
80957;SDS011;70419;42.700;23.316;2023-07-29T14:44:24;4.05;;;1.90;;
80957;SDS011;70419;42.700;23.316;2023-07-29T14:46:50;5.38;;;1.70;;
80957;SDS011;70419;42.700;23.316;2023-07-29T14:49:15;4.68;;;1.73;;
80957;SDS011;70419;42.700;23.316;2023-07-29T14:51:41;3.28;;;1.70;;
80957;SDS011;70419;42.700;23.316;2023-07-29T14:54:07;3.05;;;1.73;;
80957;SDS011;70419;42.700;23.316;2023-07-29T14:56:33;6.25;;;2.00;;
80957;SDS011;70419;42.700;23.316;2023-07-29T14:58:58;3.63;;;1.50;;
80957;SDS011;70419;42.700;23.316;2023-07-29T15:01:24;3.75;;;1.40;;
80957;SDS011;70419;42.700;23.316;2023-07-29T15:03:50;5.70;;;1.38;;
80957;SDS011;70419;42.700;23.316;2023-07-29T15:06:18;4.95;;;1.60;;
80957;SDS011;70419;42.700;23.316;2023-07-29T15:08:44;3.65;;;1.40;;